Nationale Nord-Est Plateau de Malzéville (54) - H

Date : 03/06/2012
Distance : 4,100 km

Place Nom Licence Catégorie Club Temps min/km CN à J-60 Points Différence Nouveau CN
1 VOGT Christiane 2557 D65 6709AL 1:02:28 15'14 3545 4381 +836 3801
2 ENARD Monique 2664 D60 2101BO 1:08:15 16'38 3184 4010 +826 3647
3 MONTANARI Colette 2533 D60 5703LO 1:09:11 16'52 3496 3956 +460 3667
4 DUBROCA Monique 633 D65 3308AQ 1:09:55 17'03 4497 3914 -583 4846
5 WOEHRLE Gilbert 370 H70 6803AL 1:12:32 17'41 2797 3773 +976 3147
6 AST Norbert 2512 H70 8809LO 1:14:13 18'06 3184 3687 +503 3429
7 LABEUR Roselyne 905 D60 7707IF 1:15:36 18'26 3647 3620 -27 3903
8 ANNE Brigitte 1672 D60 0111RA 1:17:28 18'53 3424 3533 +109 3604
9 CHALOPIN Catherine 3674 D60 2105BO 1:17:42 18'57 3560 3522 -38 3898
10 TESTOUD Philippe 935 H70 7707IF 1:17:58 19'00 3509 3510 +1 3690
11 BELLE Emmanuelle 8258 D40 6205NO 1:19:31 19'23 3077 3442 +365 3213
12 BERGER M-Jose 7182 D60 5703LO 1:19:31 19'23 3893 3442 -451 3930
13 KENANE Abdelkader 1448 H70 5501LO 1:19:37 19'25 4368 3437 -931 4484
14 RIFFARD J-Claude 2445 H70 5702LO 1:19:41 19'26 3350 3434 +84 3610
15 LEMERCIER Jocelyne 2474 D60 5407LO 1:20:54 19'43 3183 3383 +200 3276
16 BOUSSER Marie-Rose 1844 D60 5702LO 1:21:43 19'55 0 3349 2482
17 SIMONET Jean 930 H70 7707IF 1:21:53 19'58 4103 3342 -761 4851
18 MOULIERE M-Bernadette 2888 D65 0207PI 1:21:53 19'58 3466 3342 -124 3466
19 DIEUDONNE Madeleine 1380 D65 7808IF 1:22:07 20'01 4109 3333 -776 4141
20 CREUSAT Fanny 25989 D40 8809LO 1:22:29 20'07 0 3318 2868
21 THIEBAULD Georges 4389 H70 8809LO 1:22:30 20'07 3386 3317 -69 3319
22 BEAUVISAGE Fabienne 13740 D45 7807IF 1:27:57 21'27 2995 3112 +117 3064
23 SIMONET Marie 931 D60 7707IF 1:31:53 22'24 2842 2978 +136 2993
24 DODIN Genevieve 4392 D60 8809LO 1:33:32 22'48 2505 2926 +421 2588
25 DENIS Martine 12377 D65 9307IF 1:36:18 23'29 2801 2842 +41 2986
26 RIFFARD M-Lucie 2446 D70 5702LO 1:37:37 23'48 3093 2803 -290 2901
27 AST Claudine 2511 D65 8809LO 1:42:51 25'05 2488 2661 +173 2448
28 MERIGUET Valérie 16687 D40 7807IF 1:43:03 25'08 3304 2656 -648 3378
29 OUDIN M-Reine 7574 D60 6804AL 1:45:54 25'49 3976 2584 -1392 4057
30 MOUGEL Danielle 7910 D65 8809LO 1:46:23 25'56 2428 2572 +144 2593
31 ABISSE Gisele 701 D65 2508FC 1:47:51 26'18 3543 2537 -1006 3539
32 DESAINTJAN Claude 2547 H70 6804AL 1:50:13 26'52 3489 2483 -1006 3468
33 ROLLET Marie-Madeleine 2413 D65 5415LO 1:50:14 26'53 2524 2483 -41 2500
34 JEANPIERRE M-Therese 3302 D65 8809LO 1:50:48 27'01 3204 2470 -734 3222
35 THIEBAULT M-Paule 4490 D60 6804AL 1:58:23 28'52 2337 2312 -25 2355
36 HABERKORN Didier 2716 H70 2105BO 1:59:23 29'07 3699 2292 -1407 3666
37 MONTANARI Rachel 2534 D40 5703LO 2:00:16 29'20 1240 2275 +1035 1789
38 FELTGEN Eric 22817 H70 5407LO 2:09:52 31'40 0 2107 1453
39 JOLY Mauricette 310 D50 6803AL 2:17:03 33'25 2456 1997 -459 3211
40 FISCHER M-Dominique 340 D50 6803AL 2:19:16 33'58 2145 1965 -180 1980
41 LUDEWIG-JAMES Carol 15894 D70 5907NO 2:20:30 34'16 2406 1948 -458 2388
42 FEHLEN Jacqueline 20808 D65 5407LO 2:37:35 38'26 0 1737 1546
43 BEGUINOT M-Louise 1444 D65 5501LO 3:14:16 47'22 1588 1409 -179 1496
FINO Béatrice 1674 D40 0111RA pm None 2603 0 2490
DESAINTJAN Alice 2546 D70 6804AL pm None 2372 0 2360
RICHARD Nicole 14245 D60 0207PI pm None 3527 0 3527
GOETTMANN Bernadette 23051 D45 6804AL pm None 1485 0 1556
LAZAROWICZ Rose-Marie 3598 D60 7512IF pm None 2299 0 2299